Time;durP1;ratioP1;P1;durP2;ratioP2;P2;SDS_P1;SDS_P2;PMS_P1;PMS_P2;Temp;Humidity;BMP_temperature;BMP_pressure;BME280_temperature;BME280_humidity;BME280_pressure;Samples;Min_cycle;Max_cycle;Signal;HPM_P1;HPM_P2
2023/03/29 00:02:55;;;;;;;4.65;2.50;;;5.70;99.90;;;;;;15505466;23;20020;-78
2023/03/29 00:08:58;;;;;;;4.57;2.22;;;5.70;99.90;;;;;;15502737;22;20051;-78
2023/03/29 00:15:00;;;;;;;6.63;2.55;;;5.50;99.90;;;;;;15504275;22;20435;-78
2023/03/29 00:21:02;;;;;;;3.80;2.25;;;5.50;99.90;;;;;;15497415;22;20016;-78
2023/03/29 00:27:05;;;;;;;6.38;2.40;;;5.40;99.90;;;;;;15495121;23;20031;-78
2023/03/29 00:33:07;;;;;;;6.93;2.65;;;5.30;99.90;;;;;;15493588;22;20107;-78
2023/03/29 00:39:09;;;;;;;6.22;3.03;;;5.20;99.90;;;;;;15425031;23;20093;-78
2023/03/29 00:45:11;;;;;;;4.88;2.30;;;5.00;99.90;;;;;;15402168;23;20409;-79
2023/03/29 00:51:15;;;;;;;6.45;3.05;;;4.90;99.90;;;;;;15429003;23;20036;-78
2023/03/29 00:57:18;;;;;;;;;;;4.80;99.90;;;;;;15397773;23;20091;-79
2023/03/29 01:03:26;;;;;;;5.35;2.60;;;4.80;99.90;;;;;;15427259;23;19994;-79
2023/03/29 01:09:32;;;;;;;5.78;2.40;;;4.80;99.90;;;;;;15428797;23;20273;-78
2023/03/29 01:15:39;;;;;;;5.03;2.42;;;4.70;99.90;;;;;;15426529;23;20394;-79
2023/03/29 01:21:54;;;;;;;8.50;2.88;;;4.60;99.90;;;;;;15399207;23;20032;-79
2023/03/29 01:28:01;;;;;;;7.38;3.03;;;4.60;99.90;;;;;;15429121;23;20035;-78
2023/03/29 01:34:10;;;;;;;5.03;2.45;;;4.50;99.90;;;;;;15420059;23;20094;-79
2023/03/29 01:40:12;;;;;;;5.35;2.55;;;4.50;99.90;;;;;;15426684;23;20020;-79
2023/03/29 01:46:32;;;;;;;4.68;2.70;;;4.50;99.90;;;;;;15420681;23;20017;-78
2023/03/29 01:53:06;;;;;;;4.88;3.10;;;4.50;99.90;;;;;;15424692;23;20025;-78
2023/03/29 01:59:12;;;;;;;6.95;3.47;;;4.50;99.90;;;;;;15382047;23;20023;-78
2023/03/29 02:05:16;;;;;;;4.65;3.05;;;4.40;99.90;;;;;;15422207;23;20106;-78
2023/03/29 02:11:20;;;;;;;5.47;3.57;;;4.30;99.90;;;;;;15397241;23;20036;-78
2023/03/29 02:17:25;;;;;;;6.03;3.45;;;4.20;99.90;;;;;;15424742;23;20025;-79
2023/03/29 02:23:33;;;;;;;6.47;4.10;;;4.20;99.90;;;;;;15429407;23;20025;-79
2023/03/29 02:29:35;;;;;;;5.22;3.28;;;4.20;99.90;;;;;;15390840;23;21049;-79
2023/03/29 02:35:52;;;;;;;6.88;3.65;;;4.10;99.90;;;;;;15391856;23;20088;-78
2023/03/29 02:41:54;;;;;;;7.90;3.83;;;4.20;99.90;;;;;;15425632;23;20044;-78
2023/03/29 02:48:02;;;;;;;6.90;3.22;;;4.20;99.90;;;;;;15398319;23;20030;-79
2023/03/29 02:54:07;;;;;;;6.70;3.25;;;4.20;99.90;;;;;;15398543;23;20470;-79
2023/03/29 03:00:11;;;;;;;5.13;2.95;;;4.20;99.90;;;;;;15399534;23;20110;-80
2023/03/29 03:06:13;;;;;;;4.15;2.90;;;4.30;99.90;;;;;;15399865;23;20095;-79
2023/03/29 03:12:15;;;;;;;5.85;2.83;;;4.40;99.90;;;;;;15422557;23;20466;-79
2023/03/29 03:18:17;;;;;;;4.88;2.60;;;4.40;99.90;;;;;;15424575;23;20402;-79
2023/03/29 03:24:19;;;;;;;7.47;2.95;;;4.50;99.90;;;;;;15396453;23;20466;-78
2023/03/29 03:30:21;;;;;;;4.75;2.63;;;4.40;99.90;;;;;;15390805;23;20346;-78
2023/03/29 03:36:24;;;;;;;7.30;3.03;;;4.40;99.90;;;;;;15429281;23;20347;-78
2023/03/29 03:42:28;;;;;;;7.47;2.90;;;4.40;99.90;;;;;;15426700;23;20021;-78
2023/03/29 03:48:30;;;;;;;5.88;3.30;;;4.50;99.90;;;;;;15405141;23;20725;-78
2023/03/29 03:54:32;;;;;;;5.95;2.80;;;4.50;99.90;;;;;;15424034;23;20059;-78
2023/03/29 04:00:34;;;;;;;5.38;2.80;;;4.50;99.90;;;;;;15428650;23;20029;-78
2023/03/29 04:06:37;;;;;;;5.28;2.70;;;4.60;99.90;;;;;;15429563;23;20020;-79
2023/03/29 04:12:40;;;;;;;6.93;3.75;;;4.60;99.90;;;;;;15429604;23;20023;-79
2023/03/29 04:18:42;;;;;;;5.00;2.97;;;4.60;99.90;;;;;;15423311;23;20361;-78
2023/03/29 04:24:45;;;;;;;6.13;3.08;;;4.60;99.90;;;;;;15428945;23;20020;-79
2023/03/29 04:30:47;;;;;;;5.25;2.90;;;4.50;99.90;;;;;;15404365;23;20020;-79
2023/03/29 04:36:49;;;;;;;6.45;3.08;;;4.70;99.90;;;;;;15424735;23;20107;-79
2023/03/29 04:42:52;;;;;;;6.38;3.08;;;4.70;99.90;;;;;;15398563;23;20079;-78
2023/03/29 04:48:54;;;;;;;5.25;2.75;;;4.70;99.90;;;;;;15400878;23;20063;-78
2023/03/29 04:54:56;;;;;;;8.13;3.05;;;4.70;99.90;;;;;;15396464;23;20027;-79
2023/03/29 05:00:58;;;;;;;5.47;3.28;;;4.70;99.90;;;;;;15407642;23;20059;-78
2023/03/29 05:07:01;;;;;;;6.65;3.53;;;4.70;99.90;;;;;;15437727;23;20021;-79
2023/03/29 05:13:03;;;;;;;7.70;3.35;;;4.70;99.90;;;;;;15423899;23;20025;-79
2023/03/29 05:19:05;;;;;;;7.05;3.42;;;4.70;99.90;;;;;;15458304;23;20013;-79
2023/03/29 05:25:09;;;;;;;7.10;3.42;;;4.80;99.90;;;;;;15476305;23;20013;-79
2023/03/29 05:31:12;;;;;;;6.05;3.40;;;4.80;99.90;;;;;;15448099;23;20067;-78
2023/03/29 05:37:17;;;;;;;8.40;4.03;;;4.90;99.90;;;;;;15464496;23;20458;-79
2023/03/29 05:43:19;;;;;;;5.10;3.35;;;4.90;99.90;;;;;;15496839;22;20074;-78
2023/03/29 05:49:21;;;;;;;5.22;3.20;;;5.00;99.90;;;;;;15486327;23;20731;-80
2023/03/29 05:55:23;;;;;;;5.90;3.42;;;5.10;99.90;;;;;;15496531;23;20048;-78
2023/03/29 06:01:25;;;;;;;9.43;3.10;;;5.20;99.90;;;;;;15497011;22;20035;-79
2023/03/29 06:07:27;;;;;;;7.88;3.20;;;5.30;99.90;;;;;;15497002;23;20372;-79
2023/03/29 06:13:30;;;;;;;5.80;2.83;;;5.50;99.90;;;;;;15493890;22;20034;-79
2023/03/29 06:19:32;;;;;;;5.88;2.70;;;5.60;99.90;;;;;;15498990;22;20027;-79
2023/03/29 06:25:34;;;;;;;5.55;2.53;;;5.60;99.90;;;;;;15492367;22;20024;-80
2023/03/29 06:31:36;;;;;;;6.20;3.25;;;5.60;99.90;;;;;;15498501;23;20032;-79
2023/03/29 06:37:48;;;;;;;5.50;3.25;;;5.60;99.90;;;;;;15486652;22;20032;-79
2023/03/29 06:43:50;;;;;;;7.85;3.45;;;5.60;99.90;;;;;;15494388;22;20024;-79
2023/03/29 06:49:52;;;;;;;5.85;2.97;;;5.70;99.90;;;;;;15492114;23;20059;-79
2023/03/29 06:55:55;;;;;;;6.63;3.20;;;5.70;99.90;;;;;;15484556;23;20162;-79
2023/03/29 07:01:57;;;;;;;6.47;3.08;;;5.90;99.90;;;;;;15495004;22;20016;-79
2023/03/29 07:08:01;;;;;;;7.22;3.10;;;6.00;99.90;;;;;;15503135;22;20485;-79
2023/03/29 07:14:03;;;;;;;7.15;3.30;;;6.00;99.90;;;;;;15497516;23;20039;-80
2023/03/29 07:20:11;;;;;;;6.22;3.42;;;6.10;99.90;;;;;;15499060;23;20040;-79
2023/03/29 07:26:13;;;;;;;7.07;3.13;;;6.10;99.90;;;;;;15462309;23;20017;-79
2023/03/29 07:32:30;;;;;;;7.20;3.58;;;6.20;99.90;;;;;;15496112;22;20020;-78
2023/03/29 07:38:32;;;;;;;6.50;3.67;;;6.20;99.90;;;;;;15499819;23;20024;-79
2023/03/29 07:44:36;;;;;;;7.13;4.15;;;6.20;99.90;;;;;;15504825;22;20441;-78
2023/03/29 07:50:38;;;;;;;7.85;3.95;;;6.30;99.90;;;;;;15511678;22;20024;-78
2023/03/29 07:56:40;;;;;;;6.43;3.05;;;6.40;99.90;;;;;;15505328;23;20021;-80
2023/03/29 08:02:43;;;;;;;6.28;3.40;;;6.60;99.90;;;;;;15507270;22;20074;-79
2023/03/29 08:08:45;;;;;;;7.00;3.80;;;6.70;99.90;;;;;;15507115;23;20378;-79
2023/03/29 08:14:47;;;;;;;7.40;3.80;;;6.70;99.90;;;;;;15503099;23;20077;-78
2023/03/29 08:20:50;;;;;;;7.18;3.53;;;6.60;99.90;;;;;;15501102;22;20023;-79
2023/03/29 08:26:52;;;;;;;5.78;3.40;;;6.70;99.90;;;;;;15501259;23;20436;-80
2023/03/29 08:32:55;;;;;;;7.70;3.85;;;6.70;99.90;;;;;;15494188;22;20024;-79
2023/03/29 08:38:57;;;;;;;7.88;3.53;;;6.60;99.90;;;;;;15424866;23;20031;-79
2023/03/29 08:45:16;;;;;;;10.18;3.70;;;6.60;99.90;;;;;;15420862;23;20094;-79
2023/03/29 08:51:20;;;;;;;8.50;3.75;;;6.70;99.90;;;;;;15391377;23;20137;-79
2023/03/29 08:57:27;;;;;;;9.45;3.47;;;6.90;99.90;;;;;;15396697;23;20025;-78
2023/03/29 09:03:46;;;;;;;6.30;3.40;;;6.90;99.90;;;;;;15424654;23;20111;-79
2023/03/29 09:09:49;;;;;;;11.45;3.30;;;6.90;99.90;;;;;;15429247;23;20028;-79
2023/03/29 09:16:04;;;;;;;7.70;3.10;;;7.00;99.90;;;;;;15425344;23;20025;-79
2023/03/29 09:22:32;;;;;;;6.70;3.30;;;7.00;99.90;;;;;;15391641;23;20406;-79
2023/03/29 09:28:36;;;;;;;7.40;3.92;;;7.10;99.90;;;;;;15374759;23;20456;-80
2023/03/29 09:34:44;;;;;;;7.00;4.40;;;7.40;99.90;;;;;;15422542;23;20024;-79
2023/03/29 09:40:52;;;;;;;8.00;3.80;;;7.60;99.90;;;;;;15425471;23;20110;-79
2023/03/29 09:47:00;;;;;;;12.27;4.10;;;7.80;99.90;;;;;;15422194;23;20109;-79
2023/03/29 09:53:04;;;;;;;10.70;3.78;;;7.90;99.90;;;;;;15392762;23;20075;-79
2023/03/29 09:59:09;;;;;;;7.13;3.75;;;8.10;99.90;;;;;;15401847;23;20024;-79
2023/03/29 10:05:15;;;;;;;7.20;3.35;;;8.30;99.90;;;;;;15397555;23;20107;-79
2023/03/29 10:11:27;;;;;;;9.18;3.70;;;8.50;99.90;;;;;;15401134;23;20126;-78
2023/03/29 10:17:39;;;;;;;8.05;3.83;;;8.40;99.90;;;;;;15401344;23;20030;-79
2023/03/29 10:23:41;;;;;;;6.82;3.60;;;8.70;99.90;;;;;;15425000;23;20020;-79
2023/03/29 10:29:43;;;;;;;6.03;3.47;;;8.90;99.90;;;;;;15394666;23;20091;-81
2023/03/29 10:35:47;;;;;;;7.22;3.78;;;9.00;99.90;;;;;;15422234;23;20029;-79
2023/03/29 10:41:52;;;;;;;10.07;4.10;;;9.30;99.90;;;;;;15406328;23;20028;-78
2023/03/29 10:47:55;;;;;;;6.90;3.67;;;9.40;99.90;;;;;;15431325;23;20466;-79
2023/03/29 10:53:58;;;;;;;5.65;3.45;;;9.70;99.90;;;;;;15433317;23;20021;-79
2023/03/29 11:00:05;;;;;;;14.00;4.38;;;9.70;99.90;;;;;;15437731;23;20020;-80
2023/03/29 11:06:23;;;;;;;8.02;4.38;;;10.00;99.90;;;;;;15431920;23;20017;-79
2023/03/29 11:12:43;;;;;;;8.05;4.38;;;9.70;99.90;;;;;;15410484;23;20060;-78
2023/03/29 11:19:30;;;;;;;8.57;4.43;;;9.90;99.90;;;;;;15427488;23;20083;-80
2023/03/29 11:26:13;;;;;;;8.40;4.18;;;9.20;99.90;;;;;;15201942;23;20026;-79
2023/03/29 11:32:54;;;;;;;7.38;4.50;;;9.10;99.90;;;;;;15198586;23;20131;-78
2023/03/29 11:39:12;;;;;;;8.98;5.13;;;9.10;99.90;;;;;;15475235;23;20462;-79
2023/03/29 11:45:24;;;;;;;7.22;5.53;;;9.10;99.90;;;;;;15479197;22;20528;-80
2023/03/29 11:51:40;;;;;;;10.88;5.82;;;9.20;99.90;;;;;;15471941;22;20074;-79
2023/03/29 11:58:17;;;;;;;9.02;6.03;;;9.10;99.90;;;;;;15500047;23;20015;-79
2023/03/29 12:04:27;;;;;;;12.85;6.03;;;8.80;99.90;;;;;;15450013;22;20135;-79
2023/03/29 12:11:00;;;;;;;10.63;6.40;;;8.90;99.90;;;;;;15474088;22;20028;-79
2023/03/29 12:17:09;;;;;;;10.57;5.82;;;8.90;99.90;;;;;;15497624;23;20028;-80
2023/03/29 12:23:15;;;;;;;12.70;6.72;;;9.00;99.90;;;;;;15485637;22;20093;-79
2023/03/29 12:29:36;;;;;;;13.77;6.55;;;9.10;99.90;;;;;;15469998;23;20024;-79
2023/03/29 12:36:00;;;;;;;9.77;6.72;;;9.00;99.90;;;;;;15437507;22;20094;-80
2023/03/29 12:42:19;;;;;;;13.68;7.40;;;9.00;99.90;;;;;;15426897;23;20503;-79
2023/03/29 12:48:27;;;;;;;12.60;6.90;;;9.10;99.90;;;;;;15428992;23;20040;-79
2023/03/29 12:54:32;;;;;;;10.80;7.10;;;9.10;99.90;;;;;;15399116;23;20029;-79
2023/03/29 13:00:41;;;;;;;14.25;8.10;;;9.00;99.90;;;;;;15403904;23;20025;-80
2023/03/29 13:06:46;;;;;;;13.30;7.72;;;9.00;99.90;;;;;;15429894;23;20025;-79
2023/03/29 13:12:49;;;;;;;14.23;8.30;;;9.00;99.90;;;;;;15432964;23;20025;-79
2023/03/29 13:19:28;;;;;;;11.25;7.68;;;9.00;99.90;;;;;;15399338;23;20459;-79
2023/03/29 13:25:52;;;;;;;14.05;7.82;;;9.00;99.90;;;;;;15425733;23;20114;-80
2023/03/29 13:31:56;;;;;;;11.10;7.72;;;9.00;99.90;;;;;;15424518;23;20100;-79
2023/03/29 13:38:10;;;;;;;10.65;7.60;;;9.20;99.90;;;;;;15483111;23;20020;-79
2023/03/29 13:44:21;;;;;;;12.67;8.63;;;9.10;99.90;;;;;;15502511;22;20105;-79
2023/03/29 13:50:36;;;;;;;13.80;8.43;;;9.10;99.90;;;;;;15473180;22;20070;-79
2023/03/29 13:56:42;;;;;;;;;;;9.10;99.90;;;;;;15476463;23;20051;-79
2023/03/29 14:02:49;;;;;;;13.82;8.80;;;9.00;99.90;;;;;;15524260;22;19998;-79
2023/03/29 14:08:52;;;;;;;16.50;9.23;;;9.00;99.90;;;;;;15471014;23;20024;-79
2023/03/29 14:15:00;;;;;;;14.25;9.60;;;9.00;99.90;;;;;;15463598;23;20024;-79
2023/03/29 14:21:03;;;;;;;16.33;10.15;;;9.00;99.90;;;;;;15491546;22;20028;-79
2023/03/29 14:27:08;;;;;;;15.43;9.50;;;9.20;99.90;;;;;;15468467;23;20024;-79
2023/03/29 14:33:26;;;;;;;14.95;9.32;;;9.20;99.90;;;;;;15492609;22;20032;-78
2023/03/29 14:39:32;;;;;;;13.57;9.32;;;9.20;99.90;;;;;;15492689;23;20487;-79
2023/03/29 14:45:34;;;;;;;16.17;9.18;;;9.30;99.90;;;;;;15499515;23;20397;-78
2023/03/29 14:51:39;;;;;;;15.50;9.35;;;9.30;99.90;;;;;;15498977;23;20024;-78
2023/03/29 14:57:41;;;;;;;;;;;9.40;99.90;;;;;;15499282;23;20027;-79
2023/03/29 15:03:48;;;;;;;14.38;10.05;;;9.40;99.90;;;;;;15500013;22;19929;-79
2023/03/29 15:09:51;;;;;;;18.05;10.30;;;9.50;99.90;;;;;;15498157;23;20024;-78
2023/03/29 15:15:59;;;;;;;17.42;10.48;;;9.40;99.90;;;;;;15489774;22;20470;-78
2023/03/29 15:22:09;;;;;;;16.35;9.73;;;9.50;99.90;;;;;;15482053;23;20047;-79
2023/03/29 15:28:29;;;;;;;18.60;10.55;;;9.60;99.90;;;;;;15493055;22;20016;-80
2023/03/29 15:34:33;;;;;;;14.75;9.82;;;9.60;99.90;;;;;;15494282;22;20024;-79
2023/03/29 15:40:35;;;;;;;12.20;8.55;;;9.70;99.90;;;;;;15497335;22;20016;-79
2023/03/29 15:46:37;;;;;;;17.52;9.38;;;9.70;99.90;;;;;;15498942;23;20016;-78
2023/03/29 15:52:41;;;;;;;12.48;8.80;;;9.80;99.90;;;;;;15498423;22;20047;-79
2023/03/29 15:58:44;;;;;;;12.23;9.07;;;9.80;99.90;;;;;;15494796;23;20024;-79
2023/03/29 16:04:46;;;;;;;12.85;9.15;;;9.80;99.90;;;;;;15495779;23;20474;-79
2023/03/29 16:10:49;;;;;;;13.07;8.43;;;10.00;99.90;;;;;;15493958;23;20020;-79
2023/03/29 16:16:55;;;;;;;19.65;9.55;;;9.90;99.90;;;;;;15490722;23;20024;-79
2023/03/29 16:22:58;;;;;;;12.80;8.35;;;10.00;99.90;;;;;;15493669;22;20024;-79
2023/03/29 16:29:00;;;;;;;13.13;8.38;;;10.10;99.90;;;;;;15496069;22;20078;-79
2023/03/29 16:35:03;;;;;;;13.68;8.57;;;10.20;99.90;;;;;;15495404;22;20032;-79
2023/03/29 16:41:06;;;;;;;14.25;9.15;;;10.10;99.90;;;;;;15498142;22;20028;-79
2023/03/29 16:47:10;;;;;;;16.80;9.38;;;10.10;99.90;;;;;;15496654;23;20102;-79
2023/03/29 16:53:12;;;;;;;13.10;9.00;;;10.10;99.90;;;;;;15494268;22;20150;-80
2023/03/29 16:59:15;;;;;;;14.15;8.13;;;10.00;99.90;;;;;;15500390;23;20117;-79
2023/03/29 17:05:18;;;;;;;15.07;9.85;;;10.00;99.90;;;;;;15494118;23;20031;-80
2023/03/29 17:11:22;;;;;;;18.88;9.30;;;9.90;99.90;;;;;;15492569;22;20095;-79
2023/03/29 17:17:24;;;;;;;17.80;10.23;;;9.80;99.90;;;;;;15495811;23;20023;-79
2023/03/29 17:23:26;;;;;;;19.70;10.70;;;9.70;99.90;;;;;;15495093;22;20031;-79
2023/03/29 17:29:28;;;;;;;15.93;9.77;;;9.70;99.90;;;;;;15489696;23;20043;-79
2023/03/29 17:35:30;;;;;;;20.67;9.82;;;9.60;99.90;;;;;;15492038;22;20024;-78
2023/03/29 17:41:33;;;;;;;16.05;10.02;;;9.70;99.90;;;;;;15491460;23;20176;-78
2023/03/29 17:47:35;;;;;;;17.60;9.90;;;9.70;99.90;;;;;;15493021;23;20536;-78
2023/03/29 17:53:37;;;;;;;14.70;9.40;;;9.70;99.90;;;;;;15495787;22;20047;-78
2023/03/29 17:59:40;;;;;;;15.90;9.68;;;9.80;99.90;;;;;;15494473;23;20341;-78
2023/03/29 18:05:41;;;;;;;19.48;9.30;;;9.80;99.90;;;;;;15491022;23;20532;-79
2023/03/29 18:11:43;;;;;;;17.75;9.18;;;10.00;99.90;;;;;;15489509;23;20570;-79
2023/03/29 18:17:45;;;;;;;16.60;9.30;;;9.80;99.90;;;;;;15497819;23;20024;-79
2023/03/29 18:23:48;;;;;;;18.30;9.70;;;9.80;99.90;;;;;;15484956;22;20023;-79
2023/03/29 18:29:50;;;;;;;14.73;8.88;;;9.80;99.90;;;;;;15491555;23;20068;-79
2023/03/29 18:35:52;;;;;;;13.40;9.45;;;9.70;99.90;;;;;;15491640;22;20102;-79
2023/03/29 18:41:55;;;;;;;16.70;9.00;;;9.60;99.90;;;;;;15489422;23;20012;-80
2023/03/29 18:47:57;;;;;;;16.42;9.57;;;9.70;99.90;;;;;;15495293;22;20013;-80
2023/03/29 18:53:59;;;;;;;14.30;9.43;;;9.60;99.90;;;;;;15492110;22;20024;-79
2023/03/29 19:00:09;;;;;;;13.65;8.77;;;9.70;99.90;;;;;;15497066;23;20047;-79
2023/03/29 19:06:13;;;;;;;18.48;9.70;;;9.60;99.90;;;;;;15498116;23;20066;-80
2023/03/29 19:12:15;;;;;;;15.73;9.77;;;9.60;99.90;;;;;;15495812;23;20039;-79
2023/03/29 19:18:17;;;;;;;16.60;10.05;;;9.50;99.90;;;;;;15493650;23;20746;-80
2023/03/29 19:24:20;;;;;;;16.50;9.95;;;9.50;99.90;;;;;;15501799;22;20024;-79
2023/03/29 19:30:22;;;;;;;14.52;10.05;;;9.40;99.90;;;;;;15498946;23;20020;-79
2023/03/29 19:36:24;;;;;;;17.48;9.10;;;9.40;99.90;;;;;;15522886;22;20519;-80
2023/03/29 19:42:26;;;;;;;12.38;7.00;;;9.40;99.90;;;;;;15497294;22;20020;-80
2023/03/29 19:48:28;;;;;;;9.90;6.70;;;9.60;99.90;;;;;;15503563;22;20031;-81
2023/03/29 19:54:31;;;;;;;10.38;5.93;;;10.00;99.90;;;;;;15503194;23;20091;-80
2023/03/29 20:00:33;;;;;;;10.75;6.05;;;9.90;99.90;;;;;;15500936;23;20102;-80
2023/03/29 20:06:35;;;;;;;19.88;9.75;;;9.90;99.90;;;;;;15495837;23;20074;-79
2023/03/29 20:12:37;;;;;;;18.13;9.48;;;9.90;99.90;;;;;;15499876;22;20023;-79
2023/03/29 20:18:39;;;;;;;10.32;5.75;;;9.80;99.90;;;;;;15500106;23;20039;-79
2023/03/29 20:24:42;;;;;;;14.20;5.85;;;9.70;99.90;;;;;;15493485;23;20050;-79
2023/03/29 20:30:44;;;;;;;11.07;4.82;;;9.80;99.90;;;;;;15499072;22;20489;-79
2023/03/29 20:36:46;;;;;;;9.27;5.10;;;9.90;99.90;;;;;;15496895;22;20458;-79
2023/03/29 20:42:48;;;;;;;9.65;4.32;;;10.00;99.90;;;;;;15501319;23;20027;-79
2023/03/29 20:48:53;;;;;;;7.97;4.25;;;10.10;99.90;;;;;;15500237;23;20024;-79
2023/03/29 20:54:54;;;;;;;8.55;3.88;;;10.20;99.90;;;;;;15502255;23;20035;-79
2023/03/29 21:00:57;;;;;;;9.63;3.85;;;10.20;99.90;;;;;;15506012;22;20012;-79
2023/03/29 21:07:00;;;;;;;10.07;3.38;;;10.20;99.90;;;;;;15513603;23;20047;-79
2023/03/29 21:13:04;;;;;;;6.82;3.22;;;10.20;99.90;;;;;;15512696;23;20024;-79
2023/03/29 21:19:07;;;;;;;6.30;3.22;;;10.20;99.90;;;;;;15504644;23;20024;-79
2023/03/29 21:25:11;;;;;;;5.53;3.33;;;10.30;99.90;;;;;;15518300;23;20016;-79
2023/03/29 21:31:13;;;;;;;6.53;3.53;;;10.30;99.90;;;;;;15523017;23;20019;-79
2023/03/29 21:37:15;;;;;;;7.00;3.20;;;10.40;99.90;;;;;;15549925;22;20008;-80
2023/03/29 21:43:17;;;;;;;7.43;3.30;;;10.30;99.90;;;;;;15560494;22;20034;-79
2023/03/29 21:49:19;;;;;;;8.10;3.50;;;10.40;99.90;;;;;;15563708;23;20008;-80
2023/03/29 21:55:21;;;;;;;6.32;3.58;;;10.50;99.90;;;;;;15538296;23;20326;-78
2023/03/29 22:01:23;;;;;;;7.55;3.88;;;10.50;99.90;;;;;;15514076;22;20024;-79
2023/03/29 22:07:25;;;;;;;9.63;3.60;;;10.60;99.90;;;;;;15509424;23;20059;-78
2023/03/29 22:13:27;;;;;;;7.70;3.95;;;10.60;99.90;;;;;;15501972;23;20288;-78
2023/03/29 22:19:29;;;;;;;4.95;3.53;;;10.70;99.90;;;;;;15503146;23;20024;-79
2023/03/29 22:25:31;;;;;;;10.20;3.95;;;10.70;99.90;;;;;;15498680;22;20469;-79
2023/03/29 22:31:33;;;;;;;6.45;3.40;;;10.70;99.90;;;;;;15498997;22;20546;-79
2023/03/29 22:37:42;;;;;;;6.40;3.22;;;10.80;99.90;;;;;;15499188;22;20375;-80
2023/03/29 22:43:44;;;;;;;5.85;3.20;;;10.80;99.90;;;;;;15497488;22;20020;-78
2023/03/29 22:49:46;;;;;;;5.13;2.97;;;10.80;99.90;;;;;;15499430;23;20118;-78
2023/03/29 22:55:48;;;;;;;5.85;3.35;;;10.90;99.90;;;;;;15500020;23;20024;-79
2023/03/29 23:01:50;;;;;;;6.63;3.20;;;10.90;99.90;;;;;;15504499;22;20044;-79
2023/03/29 23:07:54;;;;;;;8.70;3.33;;;10.90;99.90;;;;;;15501922;23;20024;-78
2023/03/29 23:13:56;;;;;;;10.90;2.92;;;10.90;99.90;;;;;;15499977;22;20051;-79
2023/03/29 23:19:58;;;;;;;5.35;2.90;;;11.00;99.90;;;;;;15521469;22;20281;-78
2023/03/29 23:26:01;;;;;;;7.53;3.20;;;11.00;99.90;;;;;;15501595;22;20471;-78
2023/03/29 23:32:03;;;;;;;8.95;2.90;;;11.00;99.90;;;;;;15495121;22;20107;-78
2023/03/29 23:38:07;;;;;;;9.38;3.00;;;10.90;99.90;;;;;;15494518;22;20050;-78
2023/03/29 23:44:09;;;;;;;6.97;2.75;;;10.90;99.90;;;;;;15498841;23;20107;-78
2023/03/29 23:50:13;;;;;;;7.63;2.80;;;10.80;99.90;;;;;;15505573;23;20024;-78
2023/03/29 23:56:15;;;;;;;7.05;2.38;;;10.80;99.90;;;;;;15503215;23;20050;-78
